createdAt,value
2024-04-21T00:02:46.429Z,-1.1
2024-04-21T00:04:47.185Z,-1.1
2024-04-21T00:09:48.118Z,-1.1
2024-04-21T00:12:48.845Z,-1.1
2024-04-21T00:14:49.590Z,-1.1
2024-04-21T00:17:50.147Z,-1.1
2024-04-21T00:19:50.810Z,-1.1
2024-04-21T00:22:51.390Z,-1.1
2024-04-21T00:24:51.940Z,-1.2
2024-04-21T00:27:52.608Z,-1.3
2024-04-21T00:29:53.304Z,-1.3
2024-04-21T00:32:53.916Z,-1.3
2024-04-21T00:34:54.833Z,-1.3
2024-04-21T00:37:55.389Z,-1.3
2024-04-21T00:39:56.002Z,-1.3
2024-04-21T00:45:56.759Z,-1.2
2024-04-21T00:50:57.398Z,-1.1
2024-04-21T00:52:58.000Z,-1.1
2024-04-21T00:57:58.611Z,-1.2
2024-04-21T01:00:59.501Z,-1.3
2024-04-21T01:03:00.214Z,-1.3
2024-04-21T01:06:00.808Z,-1.2
2024-04-21T01:08:01.368Z,-1.2
2024-04-21T01:11:01.983Z,-1.3
2024-04-21T01:13:02.673Z,-1.3
2024-04-21T01:16:03.525Z,-1.3
2024-04-21T01:19:04.146Z,-1.3
2024-04-21T01:21:04.768Z,-1.3
2024-04-21T01:24:05.352Z,-1.3
2024-04-21T01:26:05.921Z,-1.3
2024-04-21T01:31:06.560Z,-1.1
2024-04-21T01:34:07.304Z,-1.1
2024-04-21T01:36:08.038Z,-1.1
2024-04-21T01:39:08.956Z,-1.1
2024-04-21T01:41:09.525Z,-1.1
2024-04-21T01:44:10.072Z,-1.1
2024-04-21T01:46:10.648Z,-1.0
2024-04-21T01:49:11.409Z,-1.0
2024-04-21T01:51:12.253Z,-1.0
2024-04-21T01:54:12.813Z,-1.0
2024-04-21T01:56:13.332Z,-0.9
2024-04-21T01:59:13.897Z,-0.9
2024-04-21T02:02:14.484Z,-0.9
2024-04-21T02:04:15.247Z,-1.0
2024-04-21T02:07:16.042Z,-0.9
2024-04-21T02:12:16.748Z,-0.9
2024-04-21T02:14:17.336Z,-0.9
2024-04-21T02:17:17.960Z,-0.9
2024-04-21T02:19:19.209Z,-0.9
2024-04-21T02:22:20.057Z,-0.9
2024-04-21T02:24:20.797Z,-0.9
2024-04-21T02:27:21.367Z,-0.9
2024-04-21T02:29:21.937Z,-0.8
2024-04-21T02:32:22.540Z,-0.8
2024-04-21T02:34:23.277Z,-0.8
2024-04-21T02:37:24.005Z,-0.8
2024-04-21T02:39:24.689Z,-0.7
2024-04-21T02:42:25.246Z,-0.7
2024-04-21T02:45:25.771Z,-0.7
2024-04-21T02:47:26.308Z,-0.7
2024-04-21T02:52:26.892Z,-0.7
2024-04-21T02:55:27.465Z,-0.8
2024-04-21T02:57:28.159Z,-0.8
2024-04-21T03:00:28.802Z,-0.8
2024-04-21T03:02:29.415Z,-0.8
2024-04-21T03:05:30.205Z,-0.8
2024-04-21T03:07:31.045Z,-0.8
2024-04-21T03:10:31.739Z,-0.8
2024-04-21T03:12:32.284Z,-0.7
2024-04-21T03:15:32.827Z,-0.7
2024-04-21T03:18:33.436Z,-0.8
2024-04-21T03:20:34.046Z,-0.8
2024-04-21T03:25:34.716Z,-0.8
2024-04-21T03:28:35.306Z,-0.8
2024-04-21T03:33:36.085Z,-0.9
2024-04-21T03:35:36.927Z,-0.9
2024-04-21T03:38:37.497Z,-0.9
2024-04-21T03:40:38.058Z,-0.9
2024-04-21T03:43:38.601Z,-0.8
2024-04-21T03:45:39.189Z,-0.9
2024-04-21T03:48:39.732Z,-0.9
2024-04-21T03:50:40.299Z,-0.9
2024-04-21T03:56:40.888Z,-0.9
2024-04-21T03:58:41.426Z,-0.8
2024-04-21T04:01:42.052Z,-0.9
2024-04-21T04:03:42.774Z,-0.9
2024-04-21T04:06:43.471Z,-0.8
2024-04-21T04:08:44.161Z,-0.8
2024-04-21T04:13:44.712Z,-0.8
2024-04-21T04:16:45.296Z,-1.0
2024-04-21T04:18:45.920Z,-1.3
2024-04-21T04:21:46.671Z,-1.4
2024-04-21T04:23:47.316Z,-1.4
2024-04-21T04:26:47.875Z,-1.4
2024-04-21T04:28:48.416Z,-1.3
2024-04-21T04:31:49.079Z,-1.3
2024-04-21T04:33:49.765Z,-1.3
2024-04-21T04:36:50.605Z,-1.3
2024-04-21T04:38:51.221Z,-1.2
2024-04-21T04:41:51.831Z,-1.2
2024-04-21T04:43:52.362Z,-1.1
2024-04-21T04:46:52.918Z,-1.1
2024-04-21T04:49:53.541Z,-1.1
2024-04-21T04:54:54.133Z,-1.0
2024-04-21T04:56:54.752Z,-1.0
2024-04-21T04:59:55.312Z,-1.0
2024-04-21T05:01:55.891Z,-0.9
2024-04-21T05:04:56.756Z,-0.9
2024-04-21T05:06:57.716Z,-0.9
2024-04-21T05:09:58.419Z,-0.9
2024-04-21T05:11:59.063Z,-0.8
2024-04-21T05:14:59.596Z,-0.8
2024-04-21T05:17:00.175Z,-0.8
2024-04-21T05:20:00.719Z,-0.8
2024-04-21T05:23:01.282Z,-0.7
2024-04-21T05:25:01.930Z,-0.7
2024-04-21T05:28:02.872Z,-0.6
2024-04-21T05:30:03.534Z,-0.6
2024-04-21T05:35:04.075Z,-0.7
2024-04-21T05:38:04.679Z,-0.8
2024-04-21T05:40:05.248Z,-0.8
2024-04-21T05:43:06.112Z,-0.7
2024-04-21T05:45:06.742Z,-0.7
2024-04-21T05:48:07.377Z,-0.7
2024-04-21T05:50:08.271Z,-0.7
2024-04-21T05:53:08.958Z,-0.7
2024-04-21T05:55:09.617Z,-0.7
2024-04-21T05:58:10.264Z,-0.7
2024-04-21T06:01:10.971Z,-0.7
2024-04-21T06:03:11.887Z,-0.7
2024-04-21T06:06:12.538Z,-0.7
2024-04-21T06:08:13.166Z,-0.7
2024-04-21T06:11:13.731Z,-0.7
2024-04-21T06:16:14.488Z,-0.8
2024-04-21T06:18:15.312Z,-0.8
2024-04-21T06:21:16.009Z,-0.8
2024-04-21T06:23:16.581Z,-0.8
2024-04-21T06:26:17.154Z,-0.9
2024-04-21T06:28:17.684Z,-0.9
2024-04-21T06:31:18.454Z,-0.9
2024-04-21T06:33:19.115Z,-0.9
2024-04-21T06:36:19.675Z,-0.9
2024-04-21T06:38:20.349Z,-0.9
2024-04-21T06:41:20.910Z,-0.9
2024-04-21T06:44:21.489Z,-0.8
2024-04-21T06:46:22.096Z,-0.8
2024-04-21T06:49:22.926Z,-0.7
2024-04-21T06:56:23.724Z,-0.7
2024-04-21T06:59:24.275Z,-0.6
2024-04-21T07:01:24.982Z,-0.6
2024-04-21T07:04:26.055Z,-0.6
2024-04-21T07:06:26.805Z,-0.6
2024-04-21T07:09:27.381Z,-0.5
2024-04-21T07:11:27.944Z,-0.5
2024-04-21T07:14:28.606Z,-0.4
2024-04-21T07:16:29.278Z,-0.5
2024-04-21T07:19:30.025Z,-0.4
2024-04-21T07:22:30.819Z,-0.3
2024-04-21T07:24:34.177Z,-0.3
2024-04-21T07:27:35.451Z,-0.3
2024-04-21T07:29:36.810Z,-0.3
2024-04-21T07:31:42.291Z,-0.4
2024-04-21T07:37:42.866Z,-0.4
2024-04-21T07:39:43.421Z,-0.4
2024-04-21T07:42:43.963Z,-0.5
2024-04-21T07:44:44.561Z,-0.5
2024-04-21T07:47:45.126Z,-0.5
2024-04-21T07:49:45.966Z,-0.5
2024-04-21T07:52:46.541Z,-0.7
2024-04-21T07:54:47.130Z,-0.8
2024-04-21T07:57:47.831Z,-0.8
2024-04-21T07:59:48.381Z,-0.6
2024-04-21T08:02:48.956Z,-0.6
2024-04-21T08:04:49.605Z,-0.5
2024-04-21T08:07:50.157Z,-0.6
2024-04-21T08:09:50.786Z,-0.3
2024-04-21T08:12:51.440Z,-0.3
2024-04-21T08:17:52.155Z,-0.2
2024-04-21T08:20:52.960Z,-0.2
2024-04-21T08:22:53.512Z,-0.2
2024-04-21T08:25:54.066Z,-0.1
2024-04-21T08:27:54.650Z,-0.2
2024-04-21T08:30:55.290Z,-0.2
2024-04-21T08:32:55.956Z,-0.3
2024-04-21T08:35:56.629Z,-0.2
2024-04-21T08:37:57.209Z,-0.2
2024-04-21T08:40:57.824Z,-0.3
2024-04-21T08:42:58.376Z,-0.1
2024-04-21T08:45:59.049Z,-0.2
2024-04-21T08:48:59.682Z,-0.2
2024-04-21T08:51:00.359Z,0.0
2024-04-21T08:54:00.954Z,0.0
2024-04-21T08:59:01.537Z,-0.1
2024-04-21T09:01:02.200Z,-0.1
2024-04-21T09:04:03.075Z,-0.1
2024-04-21T09:06:04.155Z,0.0
2024-04-21T09:09:04.857Z,0.0
2024-04-21T09:11:05.425Z,0.0
2024-04-21T09:14:06.434Z,0.1
2024-04-21T09:16:07.204Z,0.2
2024-04-21T09:19:08.029Z,0.2
2024-04-21T09:21:08.760Z,0.3
2024-04-21T09:24:09.426Z,0.2
2024-04-21T09:26:10.055Z,0.3
2024-04-21T09:29:10.754Z,0.4
2024-04-21T09:31:11.316Z,0.3
2024-04-21T09:34:11.991Z,0.2
2024-04-21T09:39:12.769Z,0.3
2024-04-21T09:42:13.452Z,0.6
2024-04-21T09:44:14.012Z,0.6
2024-04-21T09:47:14.607Z,0.9
2024-04-21T09:52:15.273Z,1.3
2024-04-21T09:54:16.080Z,1.4
2024-04-21T09:57:16.650Z,1.2
2024-04-21T09:59:17.176Z,1.3
2024-04-21T10:02:17.742Z,1.2
2024-04-21T10:04:18.481Z,1.1
2024-04-21T10:07:19.236Z,1.3
2024-04-21T10:09:19.883Z,1.6
2024-04-21T10:12:20.427Z,1.7
2024-04-21T10:15:21.061Z,1.5
2024-04-21T10:20:21.701Z,1.6
2024-04-21T10:22:22.287Z,1.4
2024-04-21T10:25:23.408Z,1.3
2024-04-21T10:27:24.185Z,1.1
2024-04-21T10:30:24.742Z,1.1
2024-04-21T10:32:25.411Z,1.0
2024-04-21T10:35:26.435Z,1.1
2024-04-21T10:37:27.107Z,1.1
2024-04-21T10:40:28.067Z,1.3
2024-04-21T10:42:28.851Z,1.5
2024-04-21T10:45:29.396Z,1.5
2024-04-21T10:47:30.023Z,1.2
2024-04-21T10:50:30.835Z,1.3
2024-04-21T10:52:31.512Z,1.3
2024-04-21T10:55:32.360Z,1.3
2024-04-21T11:00:33.131Z,0.9
2024-04-21T11:03:33.880Z,1.0
2024-04-21T11:05:34.667Z,1.1
2024-04-21T11:08:35.284Z,1.0
2024-04-21T11:10:35.947Z,1.1
2024-04-21T11:13:36.887Z,1.4
2024-04-21T11:15:37.542Z,1.3
2024-04-21T11:18:38.143Z,1.3
2024-04-21T11:20:39.051Z,1.2
2024-04-21T11:23:39.617Z,1.3
2024-04-21T11:25:40.254Z,1.3
2024-04-21T11:28:40.809Z,1.2
2024-04-21T11:30:41.427Z,1.2
2024-04-21T11:33:41.960Z,1.2
2024-04-21T11:36:42.639Z,1.2
2024-04-21T11:41:43.246Z,1.5
2024-04-21T11:43:43.835Z,1.5
2024-04-21T11:46:44.563Z,1.5
2024-04-21T11:48:46.535Z,1.3
2024-04-21T11:51:50.381Z,1.1
2024-04-21T11:53:50.931Z,1.1
2024-04-21T11:56:51.569Z,1.1
2024-04-21T11:58:52.202Z,1.1
2024-04-21T12:01:52.794Z,1.1
2024-04-21T12:03:53.689Z,1.1
2024-04-21T12:06:54.516Z,1.1
2024-04-21T12:08:55.153Z,1.2
2024-04-21T12:11:55.693Z,1.3
2024-04-21T12:13:56.215Z,1.4
2024-04-21T12:16:56.812Z,1.5
2024-04-21T12:21:57.744Z,1.5
2024-04-21T12:23:58.389Z,1.1
2024-04-21T12:26:58.931Z,1.1
2024-04-21T12:29:59.492Z,1.1
2024-04-21T12:32:00.060Z,0.9
2024-04-21T12:35:00.753Z,0.8
2024-04-21T12:37:01.340Z,0.7
2024-04-21T12:40:02.147Z,0.9
2024-04-21T12:42:02.951Z,0.8
2024-04-21T12:45:03.524Z,0.9
2024-04-21T12:50:04.078Z,0.9
2024-04-21T12:52:04.629Z,1.1
2024-04-21T12:55:05.323Z,1.2
2024-04-21T12:57:06.853Z,1.2
2024-04-21T13:02:07.545Z,1.3
2024-04-21T13:05:08.281Z,1.3
2024-04-21T13:08:09.051Z,1.1
2024-04-21T13:10:09.650Z,1.1
2024-04-21T13:13:10.267Z,1.4
2024-04-21T13:15:10.926Z,1.3
2024-04-21T13:18:11.521Z,1.3
2024-04-21T13:20:12.240Z,1.2
2024-04-21T13:23:12.793Z,1.4
2024-04-21T13:25:13.441Z,1.5
2024-04-21T13:28:14.134Z,1.5
2024-04-21T13:30:14.818Z,1.5
2024-04-21T13:33:15.517Z,1.6
2024-04-21T13:35:16.604Z,1.6
2024-04-21T13:38:17.180Z,1.7
2024-04-21T13:43:17.845Z,1.7
2024-04-21T13:46:18.512Z,1.6
2024-04-21T13:48:19.270Z,1.7
2024-04-21T13:51:24.375Z,1.7
2024-04-21T13:53:34.186Z,2.0
2024-04-21T13:55:34.834Z,2.4
2024-04-21T13:58:35.790Z,2.9
2024-04-21T14:01:36.536Z,3.0
2024-04-21T14:03:37.392Z,3.1
2024-04-21T14:05:38.054Z,3.2
2024-04-21T14:08:38.585Z,3.9
2024-04-21T14:11:39.187Z,4.0
2024-04-21T14:13:39.706Z,4.0
2024-04-21T14:16:40.315Z,3.9
2024-04-21T14:18:41.089Z,3.6
2024-04-21T14:23:41.628Z,3.0
2024-04-21T14:26:42.214Z,3.2
2024-04-21T14:28:42.794Z,3.2
2024-04-21T14:31:43.369Z,3.1
2024-04-21T14:33:43.911Z,2.9
2024-04-21T14:36:44.646Z,2.9
2024-04-21T14:38:45.238Z,3.0
2024-04-21T14:41:45.966Z,2.9
2024-04-21T14:43:46.539Z,3.2
2024-04-21T14:46:47.116Z,3.7
2024-04-21T14:49:47.756Z,4.1
2024-04-21T14:51:48.675Z,4.4
2024-04-21T14:54:49.609Z,4.7
2024-04-21T14:56:50.195Z,4.7
2024-04-21T14:59:50.724Z,4.5
2024-04-21T15:04:51.305Z,5.2
2024-04-21T15:06:51.965Z,5.3
2024-04-21T15:09:52.516Z,5.2
2024-04-21T15:11:53.078Z,5.8
2024-04-21T15:14:53.596Z,6.0
2024-04-21T15:16:54.195Z,6.3
2024-04-21T15:19:55.012Z,6.7
2024-04-21T15:22:55.612Z,7.0
2024-04-21T15:24:56.162Z,7.0
2024-04-21T15:27:57.018Z,7.2
2024-04-21T15:29:57.723Z,6.8
2024-04-21T15:32:58.335Z,6.8
2024-04-21T15:34:59.254Z,7.2
2024-04-21T15:37:59.800Z,7.2
2024-04-21T15:40:00.496Z,7.2
2024-04-21T15:45:01.309Z,6.8
2024-04-21T15:48:01.922Z,6.5
2024-04-21T15:50:03.161Z,5.9
2024-04-21T15:53:04.273Z,5.1
2024-04-21T15:55:04.933Z,4.0
2024-04-21T15:58:05.682Z,3.0
2024-04-21T16:00:07.792Z,2.3
2024-04-21T16:03:08.407Z,2.1
2024-04-21T16:06:08.948Z,1.9
2024-04-21T16:08:09.767Z,1.8
2024-04-21T16:10:10.453Z,1.7
2024-04-21T16:13:11.111Z,1.6
2024-04-21T16:16:11.891Z,1.5
2024-04-21T16:18:12.599Z,0.9
2024-04-21T16:21:13.399Z,0.7
2024-04-21T16:26:14.021Z,0.4
2024-04-21T16:28:14.696Z,0.1
2024-04-21T16:31:15.403Z,0.1
2024-04-21T16:33:16.197Z,0.0
2024-04-21T16:36:17.083Z,0.0
2024-04-21T16:38:17.662Z,-0.1
2024-04-21T16:41:18.207Z,0.3
2024-04-21T16:43:18.816Z,0.2
2024-04-21T16:46:19.525Z,-0.1
2024-04-21T16:48:20.262Z,-0.1
2024-04-21T16:51:20.931Z,0.0
2024-04-21T16:54:21.539Z,-0.3
2024-04-21T16:56:22.084Z,-0.3
2024-04-21T16:59:22.614Z,-0.4
2024-04-21T17:01:23.186Z,-0.4
2024-04-21T17:06:23.963Z,-0.5
2024-04-21T17:09:24.526Z,-0.4
2024-04-21T17:11:25.135Z,-0.5
2024-04-21T17:14:25.961Z,-0.5
2024-04-21T17:16:26.553Z,-0.5
2024-04-21T17:19:27.357Z,-0.5
2024-04-21T17:21:28.111Z,-0.4
2024-04-21T17:24:28.693Z,-0.5
2024-04-21T17:27:29.264Z,-0.6
2024-04-21T17:29:29.817Z,-0.7
2024-04-21T17:32:30.450Z,-0.7
2024-04-21T17:34:31.286Z,-0.6
2024-04-21T17:37:32.274Z,-0.7
2024-04-21T17:39:32.987Z,-0.6
2024-04-21T17:42:33.613Z,-0.5
2024-04-21T17:47:34.201Z,-0.5
2024-04-21T17:49:35.021Z,-0.4
2024-04-21T17:52:35.838Z,-0.5
2024-04-21T17:54:37.145Z,-0.4
2024-04-21T17:57:02.607Z,-0.4
2024-04-21T18:00:03.249Z,-0.5
2024-04-21T18:03:04.076Z,-0.5
2024-04-21T18:05:05.021Z,-0.5
2024-04-21T18:08:05.727Z,-0.5
2024-04-21T18:10:06.323Z,-0.5
2024-04-21T18:13:07.134Z,-0.5
2024-04-21T18:15:07.745Z,-0.5
2024-04-21T18:18:08.492Z,-0.5
2024-04-21T18:20:09.401Z,-0.5
2024-04-21T18:23:10.036Z,-0.5
2024-04-21T18:28:10.639Z,-0.5
2024-04-21T18:30:11.252Z,-0.3
2024-04-21T18:33:11.926Z,-0.3
2024-04-21T18:35:12.799Z,-0.4
2024-04-21T18:38:13.351Z,-0.3
2024-04-21T18:40:13.975Z,-0.3
2024-04-21T18:43:14.736Z,-0.2
2024-04-21T18:45:15.347Z,-0.2
2024-04-21T18:48:15.929Z,-0.2
2024-04-21T18:50:16.801Z,-0.1
2024-04-21T18:53:17.584Z,-0.1
2024-04-21T18:56:18.223Z,-0.2
2024-04-21T18:58:18.799Z,-0.1
2024-04-21T19:01:19.659Z,-0.2
2024-04-21T19:03:20.520Z,-0.2
2024-04-21T19:08:21.156Z,-0.2
2024-04-21T19:11:21.806Z,-0.4
2024-04-21T19:13:22.481Z,-0.3
2024-04-21T19:16:23.187Z,-0.4
2024-04-21T19:18:25.558Z,-0.5
2024-04-21T19:21:29.202Z,-0.5
2024-04-21T19:23:29.769Z,-0.6
2024-04-21T19:26:30.337Z,-0.6
2024-04-21T19:28:30.865Z,-0.7
2024-04-21T19:31:31.473Z,-0.7
2024-04-21T19:34:32.349Z,-0.9
2024-04-21T19:36:33.166Z,-0.9
2024-04-21T19:39:34.032Z,-1.0
2024-04-21T19:41:34.583Z,-1.1
2024-04-21T19:44:35.127Z,-1.1
2024-04-21T19:49:35.976Z,-1.1
2024-04-21T19:51:36.783Z,-1.1
2024-04-21T19:54:37.359Z,-1.2
2024-04-21T19:56:37.915Z,-1.2
2024-04-21T19:59:38.473Z,-1.3
2024-04-21T20:01:39.064Z,-1.2
2024-04-21T20:04:39.828Z,-1.3
2024-04-21T20:06:40.466Z,-1.3
2024-04-21T20:09:41.037Z,-1.3
2024-04-21T20:11:41.641Z,-1.3
2024-04-21T20:14:42.346Z,-1.3
2024-04-21T20:17:42.951Z,-1.3
2024-04-21T20:19:43.929Z,-1.4
2024-04-21T20:22:44.565Z,-1.3
2024-04-21T20:24:45.122Z,-1.4
2024-04-21T20:29:45.720Z,-1.4
2024-04-21T20:32:46.400Z,-1.4
2024-04-21T20:34:47.274Z,-1.4
2024-04-21T20:37:47.873Z,-1.4
2024-04-21T20:39:48.489Z,-1.4
2024-04-21T20:42:49.145Z,-1.4
2024-04-21T20:44:49.689Z,-1.4
2024-04-21T20:47:50.275Z,-1.4
2024-04-21T20:50:51.089Z,-1.4
2024-04-21T20:52:51.733Z,-1.3
2024-04-21T20:55:52.278Z,-1.4
2024-04-21T20:57:52.858Z,-1.4
2024-04-21T21:00:53.410Z,-1.3
2024-04-21T21:02:54.099Z,-1.3
2024-04-21T21:05:54.646Z,-1.3
2024-04-21T21:10:55.233Z,-1.4
2024-04-21T21:12:56.079Z,-1.4
2024-04-21T21:15:56.639Z,-1.3
2024-04-21T21:17:57.362Z,-1.4
2024-04-21T21:20:58.217Z,-1.4
2024-04-21T21:22:58.799Z,-1.4
2024-04-21T21:25:59.339Z,-1.4
2024-04-21T21:27:59.913Z,-1.4
2024-04-21T21:31:00.488Z,-1.4
2024-04-21T21:33:01.087Z,-1.4
2024-04-21T21:36:01.916Z,-1.5
2024-04-21T21:38:02.567Z,-1.5
2024-04-21T21:41:03.118Z,-1.5
2024-04-21T21:44:03.722Z,-1.5
2024-04-21T21:46:04.463Z,-1.5
2024-04-21T21:51:05.219Z,-1.6
2024-04-21T21:54:05.806Z,-1.6
2024-04-21T21:56:06.373Z,-1.7
2024-04-21T22:01:06.996Z,-1.6
2024-04-21T22:04:08.067Z,-1.7
2024-04-21T22:06:08.659Z,-1.7
2024-04-21T22:09:09.240Z,-1.7
2024-04-21T22:11:09.811Z,-1.7
2024-04-21T22:14:10.724Z,-1.7
2024-04-21T22:17:11.283Z,-1.7
2024-04-21T22:19:11.849Z,-1.7
2024-04-21T22:22:12.486Z,-1.7
2024-04-21T22:24:13.160Z,-1.8
2024-04-21T22:27:13.698Z,-1.8
2024-04-21T22:32:14.471Z,-1.8
2024-04-21T22:34:15.206Z,-1.8
2024-04-21T22:37:15.866Z,-1.9
2024-04-21T22:39:16.494Z,-1.9
2024-04-21T22:42:17.622Z,-1.9
2024-04-21T22:44:18.152Z,-1.9
2024-04-21T22:47:18.719Z,-1.9
2024-04-21T22:49:19.388Z,-1.9
2024-04-21T22:52:20.091Z,-2.0
2024-04-21T22:55:20.712Z,-2.0
2024-04-21T22:57:21.376Z,-2.0
2024-04-21T23:00:21.935Z,-2.1
2024-04-21T23:02:22.536Z,-2.0
2024-04-21T23:05:23.269Z,-2.1
2024-04-21T23:07:23.933Z,-2.0
2024-04-21T23:12:24.661Z,-2.1
2024-04-21T23:15:25.199Z,-2.1
2024-04-21T23:17:25.822Z,-2.1
2024-04-21T23:20:26.494Z,-2.1
2024-04-21T23:22:27.042Z,-2.1
2024-04-21T23:25:27.668Z,-2.2
2024-04-21T23:27:28.307Z,-2.1
2024-04-21T23:30:28.929Z,-2.2
2024-04-21T23:32:29.647Z,-2.2
2024-04-21T23:35:30.674Z,-2.3
2024-04-21T23:37:31.251Z,-2.3
2024-04-21T23:40:31.926Z,-2.2
2024-04-21T23:43:32.676Z,-2.3
2024-04-21T23:45:33.395Z,-2.3
2024-04-21T23:48:33.992Z,-2.3
2024-04-21T23:53:34.697Z,-2.3
2024-04-21T23:55:35.816Z,-2.4
2024-04-21T23:58:36.598Z,-2.4
